sensor_id;sensor_type;location;lat;lon;timestamp;temperature;humidity
72591;SHT31;60625;51.212;5.952;2024-02-26T00:03:53;7.13;75.75
72591;SHT31;60625;51.212;5.952;2024-02-26T00:08:55;7.09;76.07
72591;SHT31;60625;51.212;5.952;2024-02-26T00:13:55;7.07;76.25
72591;SHT31;60625;51.212;5.952;2024-02-26T00:18:56;7.03;77.21
72591;SHT31;60625;51.212;5.952;2024-02-26T00:23:57;6.96;77.76
72591;SHT31;60625;51.212;5.952;2024-02-26T00:28:57;6.93;77.92
72591;SHT31;60625;51.212;5.952;2024-02-26T00:33:58;6.90;78.18
72591;SHT31;60625;51.212;5.952;2024-02-26T00:38:58;6.87;78.33
72591;SHT31;60625;51.212;5.952;2024-02-26T00:43:59;6.86;78.57
72591;SHT31;60625;51.212;5.952;2024-02-26T00:49:00;6.81;79.04
72591;SHT31;60625;51.212;5.952;2024-02-26T00:54:01;6.76;79.34
72591;SHT31;60625;51.212;5.952;2024-02-26T00:59:02;6.70;79.83
72591;SHT31;60625;51.212;5.952;2024-02-26T01:04:03;6.66;80.32
72591;SHT31;60625;51.212;5.952;2024-02-26T01:09:03;6.60;80.86
72591;SHT31;60625;51.212;5.952;2024-02-26T01:14:04;6.56;81.18
72591;SHT31;60625;51.212;5.952;2024-02-26T01:19:04;6.53;81.25
72591;SHT31;60625;51.212;5.952;2024-02-26T01:24:05;6.49;81.56
72591;SHT31;60625;51.212;5.952;2024-02-26T01:29:06;6.46;82.01
72591;SHT31;60625;51.212;5.952;2024-02-26T01:34:06;6.44;82.27
72591;SHT31;60625;51.212;5.952;2024-02-26T01:39:07;6.43;82.33
72591;SHT31;60625;51.212;5.952;2024-02-26T01:44:07;6.43;82.49
72591;SHT31;60625;51.212;5.952;2024-02-26T01:49:11;6.41;82.68
72591;SHT31;60625;51.212;5.952;2024-02-26T01:54:13;6.37;82.81
72591;SHT31;60625;51.212;5.952;2024-02-26T01:59:13;6.35;82.90
72591;SHT31;60625;51.212;5.952;2024-02-26T02:04:14;6.35;83.04
72591;SHT31;60625;51.212;5.952;2024-02-26T02:09:16;6.32;83.43
72591;SHT31;60625;51.212;5.952;2024-02-26T02:14:16;6.30;83.55
72591;SHT31;60625;51.212;5.952;2024-02-26T02:19:17;6.28;83.71
72591;SHT31;60625;51.212;5.952;2024-02-26T02:24:17;6.28;83.81
72591;SHT31;60625;51.212;5.952;2024-02-26T02:29:18;6.27;84.13
72591;SHT31;60625;51.212;5.952;2024-02-26T02:34:18;6.27;84.21
72591;SHT31;60625;51.212;5.952;2024-02-26T02:39:19;6.27;84.42
72591;SHT31;60625;51.212;5.952;2024-02-26T02:44:20;6.27;84.50
72591;SHT31;60625;51.212;5.952;2024-02-26T02:49:21;6.26;84.57
72591;SHT31;60625;51.212;5.952;2024-02-26T02:54:23;6.26;84.71
72591;SHT31;60625;51.212;5.952;2024-02-26T02:59:24;6.26;84.89
72591;SHT31;60625;51.212;5.952;2024-02-26T03:04:25;6.24;85.11
72591;SHT31;60625;51.212;5.952;2024-02-26T03:09:26;6.23;85.18
72591;SHT31;60625;51.212;5.952;2024-02-26T03:14:26;6.23;85.31
72591;SHT31;60625;51.212;5.952;2024-02-26T03:19:27;6.23;85.32
72591;SHT31;60625;51.212;5.952;2024-02-26T03:24:27;6.22;85.29
72591;SHT31;60625;51.212;5.952;2024-02-26T03:29:28;6.22;85.46
72591;SHT31;60625;51.212;5.952;2024-02-26T03:34:28;6.21;85.52
72591;SHT31;60625;51.212;5.952;2024-02-26T03:39:30;6.22;85.49
72591;SHT31;60625;51.212;5.952;2024-02-26T03:44:31;6.22;85.42
72591;SHT31;60625;51.212;5.952;2024-02-26T03:49:31;6.22;85.51
72591;SHT31;60625;51.212;5.952;2024-02-26T03:54:32;6.20;85.52
72591;SHT31;60625;51.212;5.952;2024-02-26T03:59:32;6.19;85.50
72591;SHT31;60625;51.212;5.952;2024-02-26T04:04:36;6.17;85.39
72591;SHT31;60625;51.212;5.952;2024-02-26T04:09:37;6.16;85.50
72591;SHT31;60625;51.212;5.952;2024-02-26T04:14:37;6.13;85.67
72591;SHT31;60625;51.212;5.952;2024-02-26T04:19:38;6.12;85.61
72591;SHT31;60625;51.212;5.952;2024-02-26T04:24:38;6.10;85.79
72591;SHT31;60625;51.212;5.952;2024-02-26T04:29:39;6.09;85.90
72591;SHT31;60625;51.212;5.952;2024-02-26T04:34:39;6.08;86.11
72591;SHT31;60625;51.212;5.952;2024-02-26T04:39:40;6.08;86.22
72591;SHT31;60625;51.212;5.952;2024-02-26T04:44:40;6.07;86.38
72591;SHT31;60625;51.212;5.952;2024-02-26T04:49:41;6.06;86.40
72591;SHT31;60625;51.212;5.952;2024-02-26T04:54:41;6.06;86.43
72591;SHT31;60625;51.212;5.952;2024-02-26T04:59:41;6.05;86.47
72591;SHT31;60625;51.212;5.952;2024-02-26T05:04:42;6.05;86.53
72591;SHT31;60625;51.212;5.952;2024-02-26T05:09:43;6.05;86.61
72591;SHT31;60625;51.212;5.952;2024-02-26T05:14:45;6.03;86.72
72591;SHT31;60625;51.212;5.952;2024-02-26T05:19:45;6.01;86.85
72591;SHT31;60625;51.212;5.952;2024-02-26T05:24:45;6.00;86.94
72591;SHT31;60625;51.212;5.952;2024-02-26T05:29:46;6.00;87.15
72591;SHT31;60625;51.212;5.952;2024-02-26T05:34:46;6.00;87.18
72591;SHT31;60625;51.212;5.952;2024-02-26T05:39:47;5.99;87.17
72591;SHT31;60625;51.212;5.952;2024-02-26T05:44:47;5.98;87.19
72591;SHT31;60625;51.212;5.952;2024-02-26T05:49:48;5.96;87.21
72591;SHT31;60625;51.212;5.952;2024-02-26T05:54:48;5.94;87.25
72591;SHT31;60625;51.212;5.952;2024-02-26T05:59:49;5.92;87.40
72591;SHT31;60625;51.212;5.952;2024-02-26T06:04:49;5.90;87.55
72591;SHT31;60625;51.212;5.952;2024-02-26T06:09:50;5.88;87.73
72591;SHT31;60625;51.212;5.952;2024-02-26T06:14:50;5.87;87.86
72591;SHT31;60625;51.212;5.952;2024-02-26T06:19:51;5.85;87.94
72591;SHT31;60625;51.212;5.952;2024-02-26T06:24:51;5.83;88.08
72591;SHT31;60625;51.212;5.952;2024-02-26T06:29:52;5.84;88.15
72591;SHT31;60625;51.212;5.952;2024-02-26T06:34:52;5.84;88.22
72591;SHT31;60625;51.212;5.952;2024-02-26T06:39:53;5.83;88.36
72591;SHT31;60625;51.212;5.952;2024-02-26T06:44:54;5.82;88.39
72591;SHT31;60625;51.212;5.952;2024-02-26T06:49:54;5.81;88.36
72591;SHT31;60625;51.212;5.952;2024-02-26T06:54:58;5.79;88.35
72591;SHT31;60625;51.212;5.952;2024-02-26T06:59:58;5.78;88.24
72591;SHT31;60625;51.212;5.952;2024-02-26T07:04:59;5.78;88.25
72591;SHT31;60625;51.212;5.952;2024-02-26T07:10:00;5.76;88.32
72591;SHT31;60625;51.212;5.952;2024-02-26T07:15:03;5.75;88.29
72591;SHT31;60625;51.212;5.952;2024-02-26T07:20:05;5.74;88.32
72591;SHT31;60625;51.212;5.952;2024-02-26T07:25:06;5.73;88.39
72591;SHT31;60625;51.212;5.952;2024-02-26T07:30:09;5.72;88.46
72591;SHT31;60625;51.212;5.952;2024-02-26T07:35:10;5.72;88.39
72591;SHT31;60625;51.212;5.952;2024-02-26T07:40:11;5.71;88.39
72591;SHT31;60625;51.212;5.952;2024-02-26T07:45:12;5.71;88.43
72591;SHT31;60625;51.212;5.952;2024-02-26T07:50:12;5.71;88.52
72591;SHT31;60625;51.212;5.952;2024-02-26T07:55:13;5.71;88.56
72591;SHT31;60625;51.212;5.952;2024-02-26T08:00:13;5.71;88.60
72591;SHT31;60625;51.212;5.952;2024-02-26T08:05:16;5.72;88.64
72591;SHT31;60625;51.212;5.952;2024-02-26T08:10:17;5.74;88.66
72591;SHT31;60625;51.212;5.952;2024-02-26T08:15:18;5.74;88.66
72591;SHT31;60625;51.212;5.952;2024-02-26T08:20:19;5.76;88.72
72591;SHT31;60625;51.212;5.952;2024-02-26T08:25:19;5.78;88.82
72591;SHT31;60625;51.212;5.952;2024-02-26T08:30:20;5.79;88.86
72591;SHT31;60625;51.212;5.952;2024-02-26T08:35:20;5.81;88.89
72591;SHT31;60625;51.212;5.952;2024-02-26T08:40:21;5.82;88.88
72591;SHT31;60625;51.212;5.952;2024-02-26T08:45:22;5.82;88.88
72591;SHT31;60625;51.212;5.952;2024-02-26T08:50:22;5.83;88.85
72591;SHT31;60625;51.212;5.952;2024-02-26T08:55:23;5.83;88.97
72591;SHT31;60625;51.212;5.952;2024-02-26T09:00:23;5.83;88.97
72591;SHT31;60625;51.212;5.952;2024-02-26T09:05:24;5.84;89.01
72591;SHT31;60625;51.212;5.952;2024-02-26T09:10:24;5.86;89.15
72591;SHT31;60625;51.212;5.952;2024-02-26T09:15:25;5.88;89.18
72591;SHT31;60625;51.212;5.952;2024-02-26T09:20:25;5.88;89.18
72591;SHT31;60625;51.212;5.952;2024-02-26T09:25:26;5.88;89.11
72591;SHT31;60625;51.212;5.952;2024-02-26T09:30:26;5.88;89.16
72591;SHT31;60625;51.212;5.952;2024-02-26T09:35:27;5.90;89.13
72591;SHT31;60625;51.212;5.952;2024-02-26T09:40:28;5.91;89.15
72591;SHT31;60625;51.212;5.952;2024-02-26T09:45:28;5.90;89.15
72591;SHT31;60625;51.212;5.952;2024-02-26T09:50:33;5.91;89.07
72591;SHT31;60625;51.212;5.952;2024-02-26T09:55:33;5.91;88.94
72591;SHT31;60625;51.212;5.952;2024-02-26T10:00:36;5.92;89.07
72591;SHT31;60625;51.212;5.952;2024-02-26T10:05:39;5.93;89.06
72591;SHT31;60625;51.212;5.952;2024-02-26T10:10:41;5.94;89.00
72591;SHT31;60625;51.212;5.952;2024-02-26T10:15:42;5.98;89.17
72591;SHT31;60625;51.212;5.952;2024-02-26T10:20:43;6.01;89.17
72591;SHT31;60625;51.212;5.952;2024-02-26T10:26:02;6.02;89.13
72591;SHT31;60625;51.212;5.952;2024-02-26T10:31:03;6.03;89.17
72591;SHT31;60625;51.212;5.952;2024-02-26T10:36:04;6.04;89.12
72591;SHT31;60625;51.212;5.952;2024-02-26T10:41:06;6.04;89.14
72591;SHT31;60625;51.212;5.952;2024-02-26T10:46:08;6.07;89.11
72591;SHT31;60625;51.212;5.952;2024-02-26T10:51:09;6.08;89.01
72591;SHT31;60625;51.212;5.952;2024-02-26T10:56:13;6.12;89.09
72591;SHT31;60625;51.212;5.952;2024-02-26T11:01:16;6.16;89.11
72591;SHT31;60625;51.212;5.952;2024-02-26T11:06:16;6.23;89.01
72591;SHT31;60625;51.212;5.952;2024-02-26T11:11:19;6.30;88.95
72591;SHT31;60625;51.212;5.952;2024-02-26T11:16:21;6.34;88.68
72591;SHT31;60625;51.212;5.952;2024-02-26T11:21:22;6.36;88.58
72591;SHT31;60625;51.212;5.952;2024-02-26T11:27:12;6.37;88.40
72591;SHT31;60625;51.212;5.952;2024-02-26T11:32:06;6.36;88.36
72591;SHT31;60625;51.212;5.952;2024-02-26T11:37:10;6.36;88.46
72591;SHT31;60625;51.212;5.952;2024-02-26T11:42:15;6.38;88.60
72591;SHT31;60625;51.212;5.952;2024-02-26T11:47:19;6.39;88.53
72591;SHT31;60625;51.212;5.952;2024-02-26T11:52:22;6.38;88.47
72591;SHT31;60625;51.212;5.952;2024-02-26T11:57:26;6.36;88.33
72591;SHT31;60625;51.212;5.952;2024-02-26T12:08:02;6.38;88.46
72591;SHT31;60625;51.212;5.952;2024-02-26T12:18:15;6.36;88.22
72591;SHT31;60625;51.212;5.952;2024-02-26T12:23:18;6.36;88.37
72591;SHT31;60625;51.212;5.952;2024-02-26T12:28:18;6.37;88.39
72591;SHT31;60625;51.212;5.952;2024-02-26T12:33:19;6.38;88.58
72591;SHT31;60625;51.212;5.952;2024-02-26T12:38:19;6.40;88.68
72591;SHT31;60625;51.212;5.952;2024-02-26T12:43:20;6.43;88.63
72591;SHT31;60625;51.212;5.952;2024-02-26T12:48:21;6.42;88.30
72591;SHT31;60625;51.212;5.952;2024-02-26T12:53:22;6.43;88.20
72591;SHT31;60625;51.212;5.952;2024-02-26T12:58:22;6.46;88.22
72591;SHT31;60625;51.212;5.952;2024-02-26T13:03:28;6.45;87.93
72591;SHT31;60625;51.212;5.952;2024-02-26T13:08:29;6.46;88.03
72591;SHT31;60625;51.212;5.952;2024-02-26T13:13:30;6.49;88.17
72591;SHT31;60625;51.212;5.952;2024-02-26T13:18:31;6.50;88.07
72591;SHT31;60625;51.212;5.952;2024-02-26T13:23:32;6.51;88.04
72591;SHT31;60625;51.212;5.952;2024-02-26T13:28:32;6.55;88.19
72591;SHT31;60625;51.212;5.952;2024-02-26T13:33:33;6.64;88.38
72591;SHT31;60625;51.212;5.952;2024-02-26T13:38:34;6.68;88.40
72591;SHT31;60625;51.212;5.952;2024-02-26T13:43:34;6.69;88.21
72591;SHT31;60625;51.212;5.952;2024-02-26T13:48:35;6.73;88.33
72591;SHT31;60625;51.212;5.952;2024-02-26T13:53:35;6.78;88.34
72591;SHT31;60625;51.212;5.952;2024-02-26T13:58:36;6.83;88.34
72591;SHT31;60625;51.212;5.952;2024-02-26T14:03:37;6.86;88.15
72591;SHT31;60625;51.212;5.952;2024-02-26T14:08:37;6.87;88.04
72591;SHT31;60625;51.212;5.952;2024-02-26T14:13:38;6.85;87.78
72591;SHT31;60625;51.212;5.952;2024-02-26T14:18:38;6.87;87.81
72591;SHT31;60625;51.212;5.952;2024-02-26T14:23:39;6.89;87.76
72591;SHT31;60625;51.212;5.952;2024-02-26T14:28:40;6.93;87.65
72591;SHT31;60625;51.212;5.952;2024-02-26T14:33:40;6.94;87.04
72591;SHT31;60625;51.212;5.952;2024-02-26T14:38:41;6.96;86.92
72591;SHT31;60625;51.212;5.952;2024-02-26T14:43:41;6.97;86.74
72591;SHT31;60625;51.212;5.952;2024-02-26T14:48:42;7.00;86.96
72591;SHT31;60625;51.212;5.952;2024-02-26T14:53:42;7.03;87.03
72591;SHT31;60625;51.212;5.952;2024-02-26T14:58:43;7.02;86.49
72591;SHT31;60625;51.212;5.952;2024-02-26T15:03:43;7.02;86.51
72591;SHT31;60625;51.212;5.952;2024-02-26T15:08:44;7.04;86.79
72591;SHT31;60625;51.212;5.952;2024-02-26T15:13:44;7.05;86.74
72591;SHT31;60625;51.212;5.952;2024-02-26T15:18:45;7.05;86.57
72591;SHT31;60625;51.212;5.952;2024-02-26T15:23:45;7.00;86.38
72591;SHT31;60625;51.212;5.952;2024-02-26T15:28:46;6.95;86.17
72591;SHT31;60625;51.212;5.952;2024-02-26T15:33:46;6.91;85.99
72591;SHT31;60625;51.212;5.952;2024-02-26T15:38:47;6.89;86.31
72591;SHT31;60625;51.212;5.952;2024-02-26T15:43:47;6.88;86.31
72591;SHT31;60625;51.212;5.952;2024-02-26T15:48:48;6.86;86.01
72591;SHT31;60625;51.212;5.952;2024-02-26T15:53:49;6.82;86.13
72591;SHT31;60625;51.212;5.952;2024-02-26T15:58:50;6.80;86.31
72591;SHT31;60625;51.212;5.952;2024-02-26T16:03:51;6.75;86.08
72591;SHT31;60625;51.212;5.952;2024-02-26T16:08:54;6.68;86.03
72591;SHT31;60625;51.212;5.952;2024-02-26T16:13:58;6.65;86.17
72591;SHT31;60625;51.212;5.952;2024-02-26T16:19:12;6.61;85.97
72591;SHT31;60625;51.212;5.952;2024-02-26T16:24:14;6.57;86.00
72591;SHT31;60625;51.212;5.952;2024-02-26T16:29:14;6.55;86.11
72591;SHT31;60625;51.212;5.952;2024-02-26T16:34:16;6.52;86.08
72591;SHT31;60625;51.212;5.952;2024-02-26T16:39:16;6.52;86.23
72591;SHT31;60625;51.212;5.952;2024-02-26T16:44:17;6.50;86.19
72591;SHT31;60625;51.212;5.952;2024-02-26T16:49:17;6.50;86.38
72591;SHT31;60625;51.212;5.952;2024-02-26T16:54:18;6.48;86.32
72591;SHT31;60625;51.212;5.952;2024-02-26T16:59:19;6.47;86.43
72591;SHT31;60625;51.212;5.952;2024-02-26T17:04:20;6.45;86.59
72591;SHT31;60625;51.212;5.952;2024-02-26T17:09:22;6.45;86.69
72591;SHT31;60625;51.212;5.952;2024-02-26T17:14:23;6.44;86.61
72591;SHT31;60625;51.212;5.952;2024-02-26T17:19:23;6.44;86.50
72591;SHT31;60625;51.212;5.952;2024-02-26T17:24:24;6.44;86.25
72591;SHT31;60625;51.212;5.952;2024-02-26T17:29:25;6.45;86.21
72591;SHT31;60625;51.212;5.952;2024-02-26T17:34:25;6.45;86.24
72591;SHT31;60625;51.212;5.952;2024-02-26T17:39:25;6.45;86.29
72591;SHT31;60625;51.212;5.952;2024-02-26T17:44:33;6.46;86.31
72591;SHT31;60625;51.212;5.952;2024-02-26T17:49:39;6.45;86.36
72591;SHT31;60625;51.212;5.952;2024-02-26T17:54:40;6.45;86.43
72591;SHT31;60625;51.212;5.952;2024-02-26T17:59:40;6.44;86.50
72591;SHT31;60625;51.212;5.952;2024-02-26T18:04:41;6.42;86.64
72591;SHT31;60625;51.212;5.952;2024-02-26T18:09:41;6.41;86.67
72591;SHT31;60625;51.212;5.952;2024-02-26T18:14:42;6.40;86.82
72591;SHT31;60625;51.212;5.952;2024-02-26T18:19:42;6.39;86.90
72591;SHT31;60625;51.212;5.952;2024-02-26T18:24:43;6.38;86.98
72591;SHT31;60625;51.212;5.952;2024-02-26T18:29:43;6.37;87.04
72591;SHT31;60625;51.212;5.952;2024-02-26T18:34:44;6.36;87.15
72591;SHT31;60625;51.212;5.952;2024-02-26T18:39:45;6.35;87.22
72591;SHT31;60625;51.212;5.952;2024-02-26T18:44:45;6.33;87.29
72591;SHT31;60625;51.212;5.952;2024-02-26T18:49:46;6.33;87.33
72591;SHT31;60625;51.212;5.952;2024-02-26T18:54:46;6.32;87.35
72591;SHT31;60625;51.212;5.952;2024-02-26T18:59:47;6.32;87.43
72591;SHT31;60625;51.212;5.952;2024-02-26T19:04:49;6.31;87.42
72591;SHT31;60625;51.212;5.952;2024-02-26T19:09:50;6.31;87.43
72591;SHT31;60625;51.212;5.952;2024-02-26T19:14:52;6.30;87.46
72591;SHT31;60625;51.212;5.952;2024-02-26T19:19:54;6.30;87.41
72591;SHT31;60625;51.212;5.952;2024-02-26T19:24:54;6.29;87.46
72591;SHT31;60625;51.212;5.952;2024-02-26T19:29:55;6.28;87.49
72591;SHT31;60625;51.212;5.952;2024-02-26T19:34:55;6.26;87.56
72591;SHT31;60625;51.212;5.952;2024-02-26T19:39:57;6.23;87.59
72591;SHT31;60625;51.212;5.952;2024-02-26T19:45:00;6.21;87.58
72591;SHT31;60625;51.212;5.952;2024-02-26T19:50:01;6.19;87.51
72591;SHT31;60625;51.212;5.952;2024-02-26T19:55:01;6.18;87.51
72591;SHT31;60625;51.212;5.952;2024-02-26T20:00:03;6.17;87.35
72591;SHT31;60625;51.212;5.952;2024-02-26T20:05:12;6.16;87.28
72591;SHT31;60625;51.212;5.952;2024-02-26T20:10:13;6.16;87.30
72591;SHT31;60625;51.212;5.952;2024-02-26T20:15:14;6.15;87.28
72591;SHT31;60625;51.212;5.952;2024-02-26T20:20:15;6.15;87.07
72591;SHT31;60625;51.212;5.952;2024-02-26T20:25:17;6.13;86.93
72591;SHT31;60625;51.212;5.952;2024-02-26T20:30:17;6.13;86.71
72591;SHT31;60625;51.212;5.952;2024-02-26T20:35:18;6.13;86.71
72591;SHT31;60625;51.212;5.952;2024-02-26T20:40:18;6.12;86.67
72591;SHT31;60625;51.212;5.952;2024-02-26T20:45:20;6.11;86.58
72591;SHT31;60625;51.212;5.952;2024-02-26T20:50:21;6.10;86.52
72591;SHT31;60625;51.212;5.952;2024-02-26T20:55:21;6.09;86.50
72591;SHT31;60625;51.212;5.952;2024-02-26T21:00:22;6.08;86.44
72591;SHT31;60625;51.212;5.952;2024-02-26T21:05:22;6.07;86.42
72591;SHT31;60625;51.212;5.952;2024-02-26T21:10:22;6.06;86.38
72591;SHT31;60625;51.212;5.952;2024-02-26T21:15:29;6.04;86.34
72591;SHT31;60625;51.212;5.952;2024-02-26T21:20:31;6.03;86.20
72591;SHT31;60625;51.212;5.952;2024-02-26T21:25:33;6.02;86.20
72591;SHT31;60625;51.212;5.952;2024-02-26T21:30:33;6.02;86.22
72591;SHT31;60625;51.212;5.952;2024-02-26T21:35:34;6.00;86.10
72591;SHT31;60625;51.212;5.952;2024-02-26T21:40:34;5.99;86.08
72591;SHT31;60625;51.212;5.952;2024-02-26T21:45:35;5.97;86.06
72591;SHT31;60625;51.212;5.952;2024-02-26T21:50:36;5.96;86.17
72591;SHT31;60625;51.212;5.952;2024-02-26T21:55:37;5.94;85.99
72591;SHT31;60625;51.212;5.952;2024-02-26T22:00:37;5.92;86.00
72591;SHT31;60625;51.212;5.952;2024-02-26T22:05:38;5.92;86.06
72591;SHT31;60625;51.212;5.952;2024-02-26T22:10:38;5.91;86.00
72591;SHT31;60625;51.212;5.952;2024-02-26T22:15:41;5.90;85.93
72591;SHT31;60625;51.212;5.952;2024-02-26T22:20:42;5.89;85.95
72591;SHT31;60625;51.212;5.952;2024-02-26T22:25:43;5.87;85.88
72591;SHT31;60625;51.212;5.952;2024-02-26T22:30:44;5.86;85.77
72591;SHT31;60625;51.212;5.952;2024-02-26T22:35:44;5.85;85.64
72591;SHT31;60625;51.212;5.952;2024-02-26T22:40:45;5.85;85.65
72591;SHT31;60625;51.212;5.952;2024-02-26T22:45:46;5.84;85.64
72591;SHT31;60625;51.212;5.952;2024-02-26T22:50:47;5.84;85.51
72591;SHT31;60625;51.212;5.952;2024-02-26T22:55:47;5.83;85.39
72591;SHT31;60625;51.212;5.952;2024-02-26T23:00:51;5.83;85.34
72591;SHT31;60625;51.212;5.952;2024-02-26T23:05:51;5.81;85.37
72591;SHT31;60625;51.212;5.952;2024-02-26T23:10:52;5.81;85.41
72591;SHT31;60625;51.212;5.952;2024-02-26T23:15:53;5.79;85.65
72591;SHT31;60625;51.212;5.952;2024-02-26T23:20:54;5.76;85.79
72591;SHT31;60625;51.212;5.952;2024-02-26T23:25:54;5.75;85.87
72591;SHT31;60625;51.212;5.952;2024-02-26T23:30:55;5.73;85.93
72591;SHT31;60625;51.212;5.952;2024-02-26T23:35:55;5.71;86.07
72591;SHT31;60625;51.212;5.952;2024-02-26T23:40:56;5.70;86.11
72591;SHT31;60625;51.212;5.952;2024-02-26T23:45:57;5.69;86.18
72591;SHT31;60625;51.212;5.952;2024-02-26T23:50:58;5.69;86.21
72591;SHT31;60625;51.212;5.952;2024-02-26T23:55:58;5.69;86.14
